Time;durP1;ratioP1;P1;durP2;ratioP2;P2;SDS_P1;SDS_P2;PMS_P1;PMS_P2;Temp;Humidity;BMP_temperature;BMP_pressure;BME280_temperature;BME280_humidity;BME280_pressure;Samples;Min_cycle;Max_cycle;Signal;HPM_P1;HPM_P2
2022/02/23 00:01:06;;;;;;;2.60;1.30;;;8.90;96.90;;;8.63;68.10;98070.22;6236376;23;20332;-39
2022/02/23 00:03:34;;;;;;;1.30;0.90;;;8.90;96.80;;;8.68;68.09;98056.53;6209617;23;20310;-39
2022/02/23 00:06:03;;;;;;;2.50;1.00;;;8.90;96.40;;;8.76;67.62;98064.66;6235730;23;20330;-39
2022/02/23 00:08:30;;;;;;;2.30;0.97;;;9.00;96.10;;;8.79;67.75;98058.22;6235787;23;20012;-39
2022/02/23 00:10:59;;;;;;;1.60;1.10;;;9.00;96.20;;;8.76;67.89;98067.31;6208869;23;20333;-39
2022/02/23 00:13:28;;;;;;;1.50;1.10;;;9.00;95.90;;;8.81;67.56;98072.19;6235793;23;20026;-39
2022/02/23 00:15:56;;;;;;;2.20;1.10;;;9.10;95.70;;;8.76;68.01;98067.31;6235980;23;20209;-39
2022/02/23 00:18:24;;;;;;;2.63;1.00;;;9.00;96.10;;;8.74;68.10;98090.47;6208170;23;20026;-39
2022/02/23 00:20:52;;;;;;;2.17;0.93;;;9.00;96.10;;;8.81;67.84;98080.97;6237177;23;20071;-39
2022/02/23 00:23:19;;;;;;;1.23;0.73;;;9.10;96.10;;;8.72;68.33;98107.53;6237136;23;20024;-39
2022/02/23 00:25:47;;;;;;;1.87;1.00;;;9.00;96.60;;;8.70;68.41;98086.41;6236339;23;20226;-39
2022/02/23 00:28:15;;;;;;;1.63;0.93;;;9.00;96.80;;;8.78;68.13;98099.84;6235375;23;20019;-40
2022/02/23 00:30:45;;;;;;;2.43;1.20;;;9.10;96.60;;;8.75;68.35;98094.81;6235950;23;20030;-40
2022/02/23 00:33:13;;;;;;;1.60;0.90;;;9.00;97.00;;;8.74;68.51;98095.78;6235471;23;20004;-39
2022/02/23 00:35:41;;;;;;;3.70;1.33;;;9.00;97.40;;;8.73;68.56;98102.06;6236609;23;20016;-40
2022/02/23 00:38:09;;;;;;;1.40;0.77;;;9.00;97.70;;;8.72;68.71;98113.66;6234316;23;20030;-39
2022/02/23 00:40:37;;;;;;;1.23;0.83;;;9.00;98.30;;;8.72;68.95;98118.13;6235865;23;20297;-40
2022/02/23 00:43:06;;;;;;;1.90;1.00;;;9.00;99.90;;;8.67;69.75;98121.22;6235617;23;20016;-39
2022/02/23 00:45:34;;;;;;;3.47;1.43;;;8.90;99.90;;;8.72;69.34;98121.63;6235705;23;20030;-39
2022/02/23 00:48:02;;;;;;;3.90;2.20;;;9.00;99.90;;;8.65;69.65;98118.69;6234584;23;20040;-39
2022/02/23 00:50:30;;;;;;;1.63;1.10;;;8.90;99.90;;;8.70;69.46;98134.19;6209532;23;20343;-40
2022/02/23 00:52:58;;;;;;;3.30;1.20;;;8.90;99.90;;;8.72;69.35;98118.97;6236756;23;20024;-39
2022/02/23 00:55:26;;;;;;;3.67;1.40;;;9.00;99.90;;;8.82;68.70;98129.59;6236313;23;20301;-39
2022/02/23 00:57:53;;;;;;;3.37;1.30;;;9.10;99.90;;;8.86;68.97;98120.41;6234550;23;20217;-39
2022/02/23 01:00:21;;;;;;;3.90;1.20;;;9.10;99.90;;;8.79;69.25;98125.41;6235208;23;20042;-39
2022/02/23 01:02:49;;;;;;;4.07;1.43;;;9.10;99.90;;;8.70;69.38;98120.09;6236136;23;20028;-40
2022/02/23 01:05:17;;;;;;;3.30;1.27;;;9.00;99.90;;;8.65;69.75;98136.44;6233984;23;20026;-39
2022/02/23 01:07:45;;;;;;;1.53;1.10;;;9.00;99.90;;;8.63;69.78;98120.66;6235152;23;20030;-38
2022/02/23 01:10:13;;;;;;;0.97;0.80;;;8.90;99.90;;;8.67;69.58;98131.84;6234987;23;20018;-39
2022/02/23 01:12:40;;;;;;;4.30;1.13;;;8.90;99.90;;;8.63;70.19;98136.56;6236187;23;20020;-39
2022/02/23 01:15:09;;;;;;;0.87;0.70;;;8.90;99.90;;;8.63;70.18;98151.66;6236231;23;20644;-39
2022/02/23 01:17:39;;;;;;;1.80;1.10;;;8.90;99.90;;;8.58;70.81;98148.56;6234380;23;20020;-40
2022/02/23 01:20:08;;;;;;;2.47;0.90;;;8.90;99.90;;;8.60;71.29;98144.78;6235077;23;20016;-40
2022/02/23 01:22:36;;;;;;;3.40;1.00;;;8.90;99.90;;;8.53;72.19;98156.94;6235032;23;20024;-39
2022/02/23 01:25:05;;;;;;;3.73;1.20;;;8.80;99.90;;;8.47;72.52;98155.69;6234889;23;20024;-40
2022/02/23 01:27:32;;;;;;;2.63;1.70;;;8.70;99.90;;;8.35;74.07;98169.97;6234137;23;20652;-39
2022/02/23 01:30:06;;;;;;;1.83;1.20;;;8.60;99.90;;;8.32;73.40;98172.91;6234728;23;20034;-39
2022/02/23 01:32:34;;;;;;;3.33;1.23;;;8.50;99.90;;;8.17;74.32;98172.41;6234656;23;20016;-39
2022/02/23 01:35:02;;;;;;;2.60;1.37;;;8.40;99.90;;;8.22;73.77;98219.75;6235216;23;20051;-39
2022/02/23 01:37:29;;;;;;;2.70;1.10;;;8.40;99.90;;;7.98;72.04;98273.91;6232826;23;20020;-39
2022/02/23 01:39:57;;;;;;;10.33;1.00;;;8.10;99.90;;;7.80;71.09;98257.75;6234501;23;20217;-39
2022/02/23 01:42:25;;;;;;;7.07;1.17;;;7.70;99.90;;;7.53;69.63;98279.44;6236550;23;20031;-39
2022/02/23 01:44:53;;;;;;;8.93;1.40;;;7.30;99.90;;;7.39;69.86;98275.28;6235080;23;20022;-39
2022/02/23 01:47:21;;;;;;;4.00;1.00;;;7.10;99.90;;;7.11;70.21;98287.28;6235838;23;20020;-39
2022/02/23 01:49:48;;;;;;;6.80;1.10;;;6.80;99.90;;;6.95;69.69;98306.19;6235125;23;20042;-39
2022/02/23 01:52:16;;;;;;;7.40;1.27;;;6.50;99.90;;;6.78;70.01;98304.88;6235666;23;20022;-39
2022/02/23 01:54:44;;;;;;;3.33;1.10;;;6.50;99.90;;;6.56;70.52;98304.91;6207909;23;20027;-39
2022/02/23 01:57:12;;;;;;;2.13;1.10;;;6.20;99.90;;;6.63;70.58;98303.44;6234753;23;20016;-39
2022/02/23 01:59:40;;;;;;;3.33;1.23;;;6.30;99.90;;;6.68;70.06;98303.94;6207348;23;20030;-39
2022/02/23 02:02:09;;;;;;;1.87;1.10;;;6.40;99.90;;;6.56;70.24;98310.19;6235576;23;20070;-39
2022/02/23 02:04:37;;;;;;;4.27;1.27;;;6.30;99.90;;;6.36;69.91;98309.06;6235288;23;20016;-39
2022/02/23 02:07:05;;;;;;;3.13;1.00;;;6.10;99.90;;;6.28;70.92;98318.47;6234744;23;20353;-38
2022/02/23 02:09:33;;;;;;;3.07;1.13;;;6.00;99.90;;;6.42;70.70;98327.13;6232884;23;20016;-38
2022/02/23 02:12:02;;;;;;;3.20;1.73;;;6.10;99.90;;;6.45;70.10;98324.25;6234576;23;20027;-39
2022/02/23 02:14:29;;;;;;;4.57;1.30;;;6.20;99.90;;;6.41;69.98;98312.22;6235136;23;20012;-39
2022/02/23 02:16:57;;;;;;;4.60;1.10;;;6.20;99.90;;;6.46;70.18;98318.00;6234500;23;20162;-39
2022/02/23 02:19:25;;;;;;;4.53;1.50;;;6.20;99.90;;;6.57;69.68;98319.78;6232969;23;20344;-39
2022/02/23 02:22:06;;;;;;;2.20;1.00;;;6.30;99.90;;;6.61;69.83;98326.53;6234233;23;20351;-39
2022/02/23 02:24:38;;;;;;;4.67;2.10;;;6.40;99.90;;;6.63;69.85;98333.41;6245375;23;20023;-39
2022/02/23 02:27:16;;;;;;;8.17;2.10;;;6.40;99.90;;;6.63;69.51;98325.47;6245725;23;20024;-38
2022/02/23 02:29:44;;;;;;;3.80;1.10;;;6.40;99.90;;;6.64;69.65;98329.78;6244920;23;20012;-39
2022/02/23 02:32:12;;;;;;;4.93;1.77;;;6.40;99.90;;;6.63;69.28;98346.63;6234363;23;20016;-39
2022/02/23 02:34:40;;;;;;;5.30;1.57;;;6.40;99.90;;;6.68;69.21;98349.75;6234026;23;20034;-39
2022/02/23 02:37:08;;;;;;;3.93;1.30;;;6.40;99.90;;;6.73;69.72;98349.41;6234177;23;20024;-38
2022/02/23 02:39:36;;;;;;;3.23;1.13;;;6.60;99.90;;;6.73;69.28;98352.06;6234064;23;20031;-39
2022/02/23 02:42:05;;;;;;;2.50;1.20;;;6.50;99.90;;;6.72;69.00;98354.81;6235627;23;20016;-38
2022/02/23 02:44:33;;;;;;;5.47;1.60;;;6.50;99.90;;;6.72;69.63;98366.22;6234552;23;20028;-39
2022/02/23 02:47:02;;;;;;;11.10;1.80;;;6.50;99.90;;;6.70;68.82;98365.50;6236146;23;20034;-39
2022/02/23 02:49:30;;;;;;;3.43;1.63;;;6.40;99.90;;;6.61;69.46;98374.16;6235524;23;20605;-38
2022/02/23 02:51:59;;;;;;;2.87;1.83;;;6.40;99.90;;;6.66;69.12;98385.22;6211617;23;20020;-38
2022/02/23 02:54:27;;;;;;;3.70;1.40;;;6.40;99.90;;;6.72;69.56;98376.81;6236591;23;20020;-39
2022/02/23 02:57:00;;;;;;;5.30;1.90;;;6.50;99.90;;;6.71;69.33;98380.44;6246704;23;20071;-39
2022/02/23 02:59:28;;;;;;;7.57;2.17;;;6.40;99.90;;;6.73;69.02;98373.22;6236752;23;20023;-39
2022/02/23 03:01:55;;;;;;;10.37;2.27;;;6.50;99.90;;;6.75;69.33;98373.94;6238158;23;20034;-39
2022/02/23 03:04:26;;;;;;;4.77;1.53;;;6.50;99.90;;;6.78;68.81;98378.16;6236687;23;20016;-39
2022/02/23 03:06:54;;;;;;;8.07;2.53;;;6.50;99.90;;;6.80;68.92;98379.69;6236174;23;20020;-39
2022/02/23 03:09:22;;;;;;;4.03;2.17;;;6.50;99.90;;;6.78;68.57;98378.16;6235990;23;20012;-38
2022/02/23 03:11:50;;;;;;;8.33;2.03;;;6.50;99.90;;;6.76;68.36;98383.56;6236102;23;20019;-39
2022/02/23 03:14:17;;;;;;;6.67;2.20;;;6.50;99.90;;;6.81;68.05;98375.28;6236783;23;20023;-39
2022/02/23 03:16:47;;;;;;;10.10;3.97;;;6.50;99.90;;;6.84;68.70;98382.97;6235891;23;20237;-40
2022/02/23 03:19:16;;;;;;;6.70;2.13;;;6.50;99.90;;;6.86;68.16;98384.53;6235646;23;20046;-38
2022/02/23 03:21:43;;;;;;;6.47;2.33;;;6.60;99.90;;;6.87;68.43;98382.72;6209254;23;20020;-38
2022/02/23 03:24:11;;;;;;;5.47;1.60;;;6.60;99.90;;;6.87;68.03;98391.50;6236275;23;20020;-38
2022/02/23 03:26:39;;;;;;;4.20;2.00;;;6.60;99.90;;;6.87;68.05;98394.16;6235501;23;20042;-39
2022/02/23 03:29:07;;;;;;;6.53;1.60;;;6.60;99.90;;;6.87;67.76;98390.69;6236172;23;20024;-38
2022/02/23 03:31:35;;;;;;;6.27;1.83;;;6.50;99.90;;;6.87;68.01;98402.09;6236561;23;20039;-38
2022/02/23 03:34:02;;;;;;;4.70;1.43;;;6.60;99.90;;;6.88;68.25;98398.50;6236192;23;20034;-39
2022/02/23 03:36:30;;;;;;;7.00;1.97;;;6.60;99.90;;;6.86;67.65;98403.06;6235218;23;20187;-39
2022/02/23 03:38:58;;;;;;;4.37;1.50;;;6.50;99.90;;;6.81;67.67;98415.81;6235467;23;20026;-38
2022/02/23 03:41:26;;;;;;;5.87;2.53;;;6.50;99.90;;;6.79;67.56;98414.25;6236161;23;20026;-39
2022/02/23 03:43:54;;;;;;;4.50;2.20;;;6.50;99.90;;;6.77;68.05;98418.81;6236955;23;20020;-39
2022/02/23 03:46:22;;;;;;;6.87;2.90;;;6.40;99.90;;;6.76;68.06;98422.41;6237669;23;20012;-38
2022/02/23 03:48:50;;;;;;;7.70;2.80;;;6.40;99.90;;;6.76;68.25;98417.97;6209917;23;20026;-39
2022/02/23 03:51:17;;;;;;;4.23;1.73;;;6.40;99.90;;;6.79;68.26;98423.03;6235046;23;20030;-38
2022/02/23 03:53:45;;;;;;;2.70;1.47;;;6.40;99.90;;;6.81;68.59;98422.91;6235513;23;20313;-38
2022/02/23 03:59:00;;;;;;;4.27;1.40;;;6.50;99.90;;;6.84;68.37;98425.31;6245946;23;20034;-39
2022/02/23 04:01:28;;;;;;;6.43;2.27;;;6.50;99.90;;;6.87;68.16;98435.66;6234623;23;20030;-38
2022/02/23 04:03:56;;;;;;;5.27;1.67;;;6.50;99.90;;;6.90;68.27;98441.56;6234608;23;20336;-39
2022/02/23 04:06:23;;;;;;;5.60;2.27;;;6.60;99.90;;;6.94;68.21;98443.97;6235557;23;20020;-39
2022/02/23 04:08:51;;;;;;;7.40;1.87;;;6.60;99.90;;;6.93;67.72;98451.06;6236308;23;20206;-39
2022/02/23 04:11:19;;;;;;;8.17;1.93;;;6.60;99.90;;;6.94;68.13;98462.50;6236015;23;20020;-39
2022/02/23 04:13:47;;;;;;;4.03;2.40;;;6.60;99.90;;;6.95;67.76;98474.78;6207774;23;20023;-39
2022/02/23 04:16:15;;;;;;;5.80;1.90;;;6.60;99.90;;;6.94;67.81;98475.72;6236019;23;20012;-39
2022/02/23 04:18:44;;;;;;;4.73;2.17;;;6.60;99.90;;;6.92;67.74;98483.81;6235101;23;20016;-40
2022/02/23 04:21:12;;;;;;;8.73;2.00;;;6.50;99.90;;;6.94;68.09;98486.31;6235547;23;20042;-40
2022/02/23 04:23:40;;;;;;;6.67;2.20;;;6.60;99.90;;;6.93;67.57;98493.44;6236762;23;20217;-39
2022/02/23 04:26:08;;;;;;;9.77;2.70;;;6.60;99.90;;;6.94;67.92;98486.31;6235876;23;20030;-40
2022/02/23 04:28:36;;;;;;;8.27;1.90;;;6.60;99.90;;;6.89;67.81;98490.16;6234743;23;20028;-39
2022/02/23 04:31:04;;;;;;;4.93;2.17;;;6.60;99.90;;;6.90;67.18;98497.16;6236985;23;20027;-39
2022/02/23 04:33:32;;;;;;;6.17;1.70;;;6.60;99.90;;;6.88;67.97;98493.78;6235820;23;20318;-39
2022/02/23 04:36:00;;;;;;;5.10;1.40;;;6.50;99.90;;;6.88;67.45;98500.88;6235165;23;20012;-39
2022/02/23 04:38:27;;;;;;;5.83;1.90;;;6.50;99.90;;;6.85;67.18;98509.91;6233142;23;20028;-39
2022/02/23 04:40:55;;;;;;;5.07;2.20;;;6.50;99.90;;;6.85;67.03;98506.41;6235608;23;20310;-39
2022/02/23 04:43:32;;;;;;;7.13;2.20;;;6.50;99.90;;;6.84;67.08;98507.34;6209173;23;20050;-39
2022/02/23 04:46:06;;;;;;;5.93;2.28;;;6.40;99.90;;;6.80;67.59;98516.50;6245398;23;20635;-39
2022/02/23 04:48:44;;;;;;;5.03;1.80;;;6.40;99.90;;;6.75;66.83;98516.84;6246702;23;20038;-39
2022/02/23 04:51:12;;;;;;;6.13;2.13;;;6.30;99.90;;;6.73;67.42;98521.41;6209245;23;20022;-39
2022/02/23 04:53:40;;;;;;;4.63;1.90;;;6.30;99.90;;;6.70;67.34;98516.34;6235776;23;20030;-39
2022/02/23 04:56:09;;;;;;;5.83;1.90;;;6.30;99.90;;;6.66;67.45;98517.53;6236443;23;20020;-40
2022/02/23 04:58:37;;;;;;;5.53;2.00;;;6.20;99.90;;;6.64;67.49;98516.81;6208439;23;20016;-39
2022/02/23 05:01:05;;;;;;;6.03;1.63;;;6.20;99.90;;;6.63;67.15;98517.75;6237248;23;20070;-39
2022/02/23 05:03:33;;;;;;;4.67;1.40;;;6.20;99.90;;;6.62;67.55;98514.28;6235411;23;20030;-40
2022/02/23 05:06:01;;;;;;;6.43;1.80;;;6.20;99.90;;;6.61;66.79;98522.31;6235186;23;20031;-39
2022/02/23 05:08:29;;;;;;;4.33;1.60;;;6.20;99.90;;;6.59;67.36;98521.59;6233799;23;20321;-40
2022/02/23 05:11:00;;;;;;;4.43;1.83;;;6.20;99.90;;;6.56;67.33;98527.97;6245670;23;20035;-40
2022/02/23 05:13:29;;;;;;;4.07;1.67;;;6.10;99.90;;;6.55;67.09;98530.72;6235774;23;20715;-39
2022/02/23 05:16:01;;;;;;;8.03;1.50;;;6.10;99.90;;;6.52;67.48;98531.81;6208591;23;20027;-39
2022/02/23 05:18:30;;;;;;;4.27;1.60;;;6.10;99.90;;;6.51;67.50;98532.75;6208825;23;20022;-39
2022/02/23 05:21:01;;;;;;;4.23;2.17;;;6.10;99.90;;;6.50;67.55;98534.56;6234670;23;20012;-39
2022/02/23 05:23:31;;;;;;;8.13;2.80;;;6.10;99.90;;;6.49;66.68;98535.53;6235645;23;20409;-39
2022/02/23 05:26:00;;;;;;;4.07;1.70;;;6.10;99.90;;;6.47;66.81;98539.22;6234684;23;20016;-39
2022/02/23 05:28:28;;;;;;;4.90;1.70;;;6.10;99.90;;;6.45;66.79;98543.78;6234014;23;20030;-39
2022/02/23 05:30:57;;;;;;;2.80;1.43;;;6.10;99.90;;;6.43;67.49;98543.91;6234529;23;20005;-39
2022/02/23 05:33:25;;;;;;;3.97;1.50;;;6.10;99.90;;;6.40;67.15;98552.06;6235743;23;20012;-39
2022/02/23 05:35:56;;;;;;;4.10;1.63;;;6.10;99.90;;;6.38;67.34;98550.47;6235304;23;20360;-39
2022/02/23 05:38:24;;;;;;;4.63;1.70;;;6.10;99.90;;;6.38;67.32;98555.78;6235581;23;20499;-39
2022/02/23 05:40:53;;;;;;;5.20;2.00;;;6.10;99.90;;;6.42;68.04;98557.25;6234908;23;20026;-39
2022/02/23 05:43:20;;;;;;;4.07;1.50;;;6.10;99.90;;;6.44;68.02;98558.81;6235589;23;20386;-40
2022/02/23 05:45:49;;;;;;;5.60;1.70;;;6.10;99.90;;;6.47;67.68;98565.69;6236260;23;20326;-40
2022/02/23 05:48:17;;;;;;;5.63;2.17;;;6.20;99.90;;;6.51;67.89;98572.44;6234042;23;20237;-40
2022/02/23 05:50:45;;;;;;;4.47;2.13;;;6.30;99.90;;;6.54;67.68;98580.16;6235111;23;20020;-40
2022/02/23 05:53:13;;;;;;;6.00;2.70;;;6.30;99.90;;;6.56;67.87;98574.75;6233044;23;20116;-40
2022/02/23 05:55:41;;;;;;;5.67;2.53;;;6.30;99.90;;;6.57;67.76;98579.06;6235619;23;20018;-40
2022/02/23 05:58:09;;;;;;;5.47;1.70;;;6.30;99.90;;;6.59;67.80;98582.44;6234534;23;20012;-40
2022/02/23 06:00:37;;;;;;;8.43;3.63;;;6.30;99.90;;;6.64;67.87;98585.59;6234579;23;20230;-40
2022/02/23 06:03:09;;;;;;;3.53;1.80;;;6.40;99.90;;;6.64;67.29;98583.81;6236446;23;20030;-40
2022/02/23 06:05:37;;;;;;;6.13;2.17;;;6.40;99.90;;;6.65;67.52;98588.16;6244639;23;20232;-40
2022/02/23 06:08:05;;;;;;;1.97;1.30;;;6.30;99.90;;;6.66;67.78;98592.47;6234369;23;20024;-39
2022/02/23 06:10:33;;;;;;;7.53;2.60;;;6.30;99.90;;;6.66;67.62;98588.97;6208857;23;20012;-40
2022/02/23 06:13:01;;;;;;;3.57;2.00;;;6.30;99.90;;;6.68;67.67;98595.00;6184407;23;20023;-41
2022/02/23 06:15:29;;;;;;;3.13;1.90;;;6.40;99.90;;;6.68;67.90;98605.59;6234482;23;20326;-40
2022/02/23 06:17:56;;;;;;;2.40;1.67;;;6.30;99.90;;;6.67;67.50;98606.56;6235129;23;20210;-39
2022/02/23 06:20:24;;;;;;;3.30;1.60;;;6.30;99.90;;;6.67;67.72;98618.00;6237382;23;20457;-40
2022/02/23 06:22:52;;;;;;;5.17;3.10;;;6.30;99.90;;;6.67;67.90;98622.44;6236600;23;20019;-40
2022/02/23 06:25:21;;;;;;;4.87;1.50;;;6.30;99.90;;;6.70;68.04;98622.19;6236156;23;20019;-39
2022/02/23 06:27:49;;;;;;;3.43;1.40;;;6.40;99.90;;;6.71;67.59;98626.56;6236002;23;20030;-39
2022/02/23 06:30:17;;;;;;;4.53;1.87;;;6.40;99.90;;;6.73;67.88;98629.94;6236663;23;20016;-38
2022/02/23 06:32:44;;;;;;;2.97;1.60;;;6.40;99.90;;;6.73;67.29;98639.66;6235788;23;20023;-39
2022/02/23 06:35:12;;;;;;;5.10;1.63;;;6.50;99.90;;;6.75;67.35;98637.75;6237178;23;20483;-39
2022/02/23 06:37:40;;;;;;;3.53;1.63;;;6.50;99.90;;;6.76;67.07;98636.78;6235406;23;20012;-39
2022/02/23 06:40:09;;;;;;;2.93;1.33;;;6.50;99.90;;;6.77;67.75;98641.13;6236828;23;20026;-38
2022/02/23 06:42:38;;;;;;;4.87;1.50;;;6.40;99.90;;;6.80;67.86;98643.53;6238456;23;20035;-39
2022/02/23 06:45:08;;;;;;;4.17;1.50;;;6.50;99.90;;;6.83;67.55;98648.63;6235289;23;20255;-38
2022/02/23 06:47:36;;;;;;;2.83;1.30;;;6.50;99.90;;;6.84;67.30;98652.94;6235231;23;20409;-38
2022/02/23 06:50:05;;;;;;;3.50;1.70;;;6.60;99.90;;;6.85;67.14;98658.13;6234725;23;20034;-38
2022/02/23 06:52:35;;;;;;;9.53;2.30;;;6.60;99.90;;;6.87;67.65;98656.22;6235878;23;20659;-38
2022/02/23 06:55:05;;;;;;;5.87;2.40;;;6.60;99.90;;;6.90;67.49;98653.34;6236603;23;20340;-38
2022/02/23 06:57:42;;;;;;;9.73;2.20;;;6.60;99.90;;;6.93;67.94;98654.06;6236253;23;20270;-38
2022/02/23 07:00:11;;;;;;;5.73;2.70;;;6.70;99.90;;;6.93;67.76;98660.22;6236365;23;20020;-38
2022/02/23 07:02:39;;;;;;;5.40;2.70;;;6.70;99.90;;;6.95;67.37;98668.03;6210202;23;20034;-38
2022/02/23 07:05:08;;;;;;;5.90;2.10;;;6.70;99.90;;;6.96;67.83;98662.66;6236719;23;20299;-38
2022/02/23 07:07:36;;;;;;;2.47;1.57;;;6.70;99.90;;;6.97;67.61;98668.78;6236345;23;20028;-38
2022/02/23 07:10:21;;;;;;;8.57;2.00;;;6.80;99.90;;;6.97;67.01;98666.13;6236671;23;20022;-37
2022/02/23 07:12:49;;;;;;;3.43;1.83;;;6.80;99.90;;;6.97;67.70;98669.63;6210478;23;20027;-37
2022/02/23 07:15:18;;;;;;;4.43;2.07;;;6.70;99.90;;;6.96;67.40;98691.75;6234994;23;20191;-37
2022/02/23 07:17:47;;;;;;;6.27;1.80;;;6.70;99.90;;;6.81;67.54;98696.38;6237021;23;20019;-38
2022/02/23 07:20:16;;;;;;;3.40;1.97;;;6.50;99.90;;;6.80;67.25;98696.47;6236655;23;20012;-38
2022/02/23 07:22:45;;;;;;;10.43;1.90;;;6.50;99.90;;;6.78;67.20;98696.56;6236283;23;20030;-38
2022/02/23 07:25:13;;;;;;;8.33;2.10;;;6.50;99.90;;;6.78;67.22;98698.38;6237145;23;20408;-38
2022/02/23 07:27:41;;;;;;;5.40;1.90;;;6.50;99.90;;;6.75;67.55;98699.47;6208774;23;20019;-38
2022/02/23 07:30:14;;;;;;;7.20;2.93;;;6.40;99.90;;;6.72;67.62;98697.03;6234361;23;20020;-38
2022/02/23 07:32:48;;;;;;;6.27;2.10;;;6.40;99.90;;;6.69;67.29;98703.41;6246176;23;20020;-37
2022/02/23 07:35:16;;;;;;;4.13;1.43;;;6.40;99.90;;;6.68;66.81;98703.50;6234106;23;20030;-38
2022/02/23 07:37:48;;;;;;;3.30;1.93;;;6.30;99.90;;;6.68;66.95;98708.81;6233188;23;20024;-37
2022/02/23 07:40:20;;;;;;;6.50;2.20;;;6.30;99.90;;;6.68;67.66;98706.16;6244775;23;20018;-37
2022/02/23 07:43:08;;;;;;;6.33;1.97;;;6.30;99.90;;;6.66;67.67;98714.19;6237717;23;20016;-37
2022/02/23 07:45:40;;;;;;;5.03;2.50;;;6.30;99.90;;;6.68;67.34;98717.56;6235577;23;20054;-37
2022/02/23 07:48:09;;;;;;;4.73;1.70;;;6.40;99.90;;;6.73;67.65;98719.03;6209345;23;20331;-37
2022/02/23 07:50:40;;;;;;;3.07;1.90;;;6.40;99.90;;;6.76;67.03;98716.19;6236103;23;20020;-37
2022/02/23 07:53:07;;;;;;;5.70;1.60;;;6.50;99.90;;;6.79;67.33;98729.22;6235655;23;20024;-37
2022/02/23 07:55:37;;;;;;;4.83;1.63;;;6.50;99.90;;;6.81;67.51;98724.66;6209634;23;20012;-37
2022/02/23 07:58:05;;;;;;;8.17;3.60;;;6.50;99.90;;;6.84;67.25;98729.69;6235940;23;20258;-37
2022/02/23 08:00:33;;;;;;;4.50;1.90;;;6.60;99.90;;;6.87;67.53;98729.50;6234672;23;20022;-37
2022/02/23 08:03:02;;;;;;;5.27;1.73;;;6.60;99.90;;;6.90;67.70;98721.31;6235268;23;20023;-37
2022/02/23 08:05:30;;;;;;;6.40;3.00;;;6.70;99.90;;;6.95;67.38;98729.78;6235582;23;20020;-37
2022/02/23 08:07:58;;;;;;;4.90;2.30;;;6.70;99.90;;;6.99;67.37;98728.59;6234787;23;20028;-37
2022/02/23 08:10:26;;;;;;;12.70;5.00;;;6.80;99.90;;;7.02;67.66;98723.09;6235488;23;20340;-37
2022/02/23 08:12:58;;;;;;;9.47;3.80;;;6.80;99.90;;;7.06;67.80;98723.72;6237902;23;20016;-37
2022/02/23 08:21:01;;;;;;;11.37;3.47;;;6.90;99.90;;;7.14;67.99;98726.63;6238712;23;20020;-37
2022/02/23 08:23:28;;;;;;;14.63;3.80;;;7.00;99.90;;;7.15;67.76;98725.66;6235300;23;20778;-37
2022/02/23 08:25:56;;;;;;;8.40;3.33;;;6.90;99.90;;;7.18;67.34;98724.59;6236724;23;20027;-37
2022/02/23 08:28:24;;;;;;;7.00;3.40;;;7.00;99.90;;;7.21;67.40;98732.31;6235116;23;20525;-37
2022/02/23 08:30:52;;;;;;;10.63;3.50;;;7.00;99.90;;;7.22;67.91;98713.66;6236123;23;20024;-37
2022/02/23 08:33:20;;;;;;;5.03;2.47;;;7.00;99.90;;;7.25;67.99;98716.09;6234898;23;20027;-37
2022/02/23 08:35:48;;;;;;;8.33;4.73;;;7.10;99.90;;;7.30;67.40;98718.38;6235783;23;20020;-37
2022/02/23 08:38:15;;;;;;;8.07;3.93;;;7.10;99.90;;;7.30;67.89;98715.75;6235876;23;20020;-37
2022/02/23 08:40:45;;;;;;;15.97;5.67;;;7.10;99.90;;;7.35;67.79;98716.25;6235746;23;20330;-38
2022/02/23 08:43:14;;;;;;;7.63;3.20;;;7.20;99.90;;;7.37;67.38;98718.78;6235181;23;20028;-37
2022/02/23 08:45:42;;;;;;;9.60;2.87;;;7.20;99.90;;;7.39;67.94;98724.81;6234583;23;20326;-37
2022/02/23 08:48:11;;;;;;;4.83;2.37;;;7.20;99.90;;;7.42;67.84;98729.88;6235634;23;20031;-36
2022/02/23 08:50:39;;;;;;;8.60;3.80;;;7.20;99.90;;;7.44;67.57;98733.25;6234641;23;20022;-37
2022/02/23 08:53:07;;;;;;;6.87;2.70;;;7.30;99.90;;;7.48;67.83;98732.91;6235732;23;20020;-37
2022/02/23 08:55:35;;;;;;;6.37;3.37;;;7.30;99.90;;;7.48;67.67;98734.69;6235628;23;20039;-38
2022/02/23 08:58:03;;;;;;;7.10;3.17;;;7.30;99.90;;;7.48;67.32;98724.97;6235259;23;20020;-37
2022/02/23 09:00:31;;;;;;;5.70;2.60;;;7.30;99.90;;;7.50;67.47;98724.84;6230762;23;20018;-37
2022/02/23 09:03:01;;;;;;;10.10;2.77;;;7.40;99.90;;;7.54;67.79;98731.63;6234308;23;20022;-37
2022/02/23 09:05:29;;;;;;;4.30;2.43;;;7.40;99.90;;;7.57;67.76;98720.78;6207119;23;20020;-37
2022/02/23 09:07:57;;;;;;;7.77;2.77;;;7.40;99.90;;;7.60;67.33;98724.97;6234194;23;20326;-37
2022/02/23 09:10:25;;;;;;;4.60;2.00;;;7.40;99.90;;;7.64;67.43;98721.16;6234441;23;20030;-37
2022/02/23 09:12:53;;;;;;;6.80;3.63;;;7.50;99.90;;;7.65;67.19;98722.84;6234877;23;20020;-37
2022/02/23 09:15:21;;;;;;;7.47;2.37;;;7.50;99.90;;;7.64;67.30;98722.00;6233491;23;20035;-37
2022/02/23 09:17:49;;;;;;;4.83;2.20;;;7.50;99.90;;;7.66;67.29;98721.91;6234923;23;20210;-37
2022/02/23 09:20:17;;;;;;;6.87;2.37;;;7.60;99.90;;;7.68;67.18;98733.22;6233145;23;20031;-37
2022/02/23 09:22:45;;;;;;;5.13;2.30;;;7.60;99.90;;;7.70;67.20;98710.09;6236543;23;20026;-37
2022/02/23 09:25:12;;;;;;;5.07;2.80;;;7.60;99.90;;;7.73;67.38;98715.13;6234816;23;20071;-36
2022/02/23 09:27:40;;;;;;;5.70;2.23;;;7.60;99.90;;;7.75;67.09;98731.78;6234277;23;20027;-38
2022/02/23 09:30:11;;;;;;;4.37;1.87;;;7.70;99.90;;;7.75;67.16;98737.06;6234601;23;20024;-37
2022/02/23 09:32:41;;;;;;;4.33;1.50;;;7.70;99.90;;;7.75;67.57;98731.78;6246746;23;20020;-38
2022/02/23 09:35:10;;;;;;;4.23;2.00;;;7.70;99.90;;;7.80;67.37;98736.75;6234860;23;20024;-38
2022/02/23 09:37:38;;;;;;;4.53;1.63;;;7.70;99.90;;;7.83;66.81;98728.53;6234552;23;20030;-37
2022/02/23 09:40:09;;;;;;;3.73;2.00;;;7.70;99.90;;;7.89;66.99;98728.09;6208130;23;20020;-38
2022/02/23 09:42:38;;;;;;;5.77;2.17;;;7.80;99.90;;;7.94;67.22;98727.72;6209578;23;20020;-38
2022/02/23 09:45:09;;;;;;;3.40;1.20;;;7.80;99.90;;;7.95;66.58;98724.97;6233994;23;20022;-37
2022/02/23 09:47:41;;;;;;;2.67;1.17;;;7.90;99.90;;;7.98;66.37;98726.53;6245508;23;20024;-37
2022/02/23 09:50:21;;;;;;;13.50;2.23;;;7.90;99.90;;;8.04;66.47;98724.22;6232975;23;20161;-38
2022/02/23 09:52:52;;;;;;;3.93;1.47;;;8.00;99.90;;;8.09;66.44;98719.41;6245195;23;20221;-37
2022/02/23 09:55:21;;;;;;;3.13;1.43;;;8.10;99.90;;;8.19;66.28;98724.84;6207284;23;20024;-37
2022/02/23 09:57:55;;;;;;;5.17;1.77;;;8.10;99.90;;;8.25;65.54;98724.38;6183786;23;20020;-37
2022/02/23 10:00:23;;;;;;;3.47;1.60;;;8.30;99.90;;;8.32;65.97;98730.06;6234719;23;20031;-38
2022/02/23 10:02:54;;;;;;;4.13;1.40;;;8.30;99.90;;;8.36;65.58;98723.53;6235335;23;20023;-38
2022/02/23 10:05:22;;;;;;;3.63;1.70;;;8.40;99.90;;;8.43;65.44;98723.91;6235154;23;20034;-37
2022/02/23 10:07:50;;;;;;;4.27;2.17;;;8.50;99.90;;;8.52;65.72;98728.50;6233999;23;20027;-38
2022/02/23 10:10:35;;;;;;;3.70;1.33;;;8.60;99.90;;;8.64;65.35;98732.81;6234973;23;20024;-38
2022/02/23 10:13:03;;;;;;;4.33;2.20;;;8.70;99.90;;;8.72;65.05;98720.75;6245246;23;20633;-37
2022/02/23 10:15:38;;;;;;;6.33;1.30;;;8.80;99.90;;;8.82;64.67;98721.69;6233259;23;20022;-37
2022/02/23 10:18:12;;;;;;;4.27;1.20;;;8.90;99.90;;;8.92;64.85;98727.97;6244635;23;20026;-38
2022/02/23 10:20:40;;;;;;;3.70;1.60;;;9.00;99.90;;;9.00;64.41;98727.34;6238145;23;20047;-37
2022/02/23 10:23:18;;;;;;;5.27;1.90;;;9.10;99.90;;;9.08;64.48;98719.59;6235721;23;20330;-37
2022/02/23 10:26:12;;;;;;;3.40;1.70;;;9.20;99.90;;;9.13;64.29;98719.22;6244127;23;20030;-38
2022/02/23 10:28:40;;;;;;;5.80;1.77;;;9.30;99.90;;;9.19;64.29;98714.25;6233046;23;20071;-37
2022/02/23 10:31:09;;;;;;;3.00;1.63;;;9.30;99.90;;;9.25;63.78;98719.06;6208928;23;20024;-38
2022/02/23 10:33:41;;;;;;;2.37;1.47;;;9.30;99.90;;;9.26;62.03;98710.09;6233240;23;20024;-37
2022/02/23 10:36:33;;;;;;;4.47;1.27;;;9.30;99.90;;;9.33;63.12;98720.25;6207998;23;20338;-37
2022/02/23 10:39:10;;;;;;;3.27;1.30;;;9.40;95.40;;;9.35;63.23;98716.47;6241473;23;20202;-37
2022/02/23 10:41:42;;;;;;;4.83;1.27;;;9.40;94.30;;;9.35;62.84;98713.81;6243120;23;20024;-37
2022/02/23 10:44:10;;;;;;;4.97;2.37;;;9.40;96.20;;;9.38;62.88;98712.72;6243999;23;20024;-37
2022/02/23 10:46:43;;;;;;;2.97;1.10;;;9.40;95.50;;;9.41;62.68;98713.31;6243920;23;20024;-37
2022/02/23 10:49:11;;;;;;;5.93;1.37;;;9.40;90.60;;;9.41;62.40;98712.47;6233048;23;20016;-37